Time;durP1;ratioP1;P1;durP2;ratioP2;P2;SDS_P1;SDS_P2;PMS_P1;PMS_P2;Temp;Humidity;BMP_temperature;BMP_pressure;BME280_temperature;BME280_humidity;BME280_pressure;Samples;Min_cycle;Max_cycle;Signal;HPM_P1;HPM_P2
2023/05/16 00:00:13;;;;;;;12.33;11.20;;;16.70;77.50;;;;;;5001509;28;20846;-66
2023/05/16 00:02:41;;;;;;;7.40;6.73;;;16.80;77.00;;;;;;5007642;28;20687;-68
2023/05/16 00:05:13;;;;;;;7.97;6.43;;;16.80;75.90;;;;;;5001185;28;20278;-68
2023/05/16 00:07:43;;;;;;;11.23;5.93;;;17.00;75.90;;;;;;5000744;28;20205;-67
2023/05/16 00:10:11;;;;;;;6.67;5.10;;;17.10;73.70;;;;;;5006115;28;20205;-65
2023/05/16 00:12:40;;;;;;;5.50;5.00;;;17.20;73.90;;;;;;5003665;28;20279;-66
2023/05/16 00:15:11;;;;;;;7.83;4.83;;;17.30;73.20;;;;;;5005414;28;20735;-67
2023/05/16 00:17:39;;;;;;;5.87;4.40;;;17.50;72.50;;;;;;5003896;28;20206;-67
2023/05/16 00:20:10;;;;;;;6.00;4.40;;;17.60;72.20;;;;;;5006762;28;20190;-66
2023/05/16 00:22:38;;;;;;;5.73;4.30;;;17.70;71.80;;;;;;5004691;28;20199;-69
2023/05/16 00:25:06;;;;;;;6.90;4.20;;;17.80;71.00;;;;;;5003458;28;20200;-68
2023/05/16 00:27:36;;;;;;;6.73;4.20;;;17.80;69.40;;;;;;5007850;28;20193;-68
2023/05/16 00:30:05;;;;;;;5.50;4.60;;;17.80;70.60;;;;;;5003394;28;20197;-68
2023/05/16 00:32:32;;;;;;;8.80;5.10;;;17.90;70.00;;;;;;4999806;28;20281;-69
2023/05/16 00:35:00;;;;;;;9.77;4.87;;;18.00;69.90;;;;;;5005272;28;20197;-68
2023/05/16 00:37:27;;;;;;;8.93;4.43;;;18.00;70.30;;;;;;5006875;28;20279;-69
2023/05/16 00:39:55;;;;;;;7.33;5.27;;;18.10;70.30;;;;;;5001839;28;21580;-69
2023/05/16 00:42:22;;;;;;;6.30;4.83;;;18.10;70.10;;;;;;5002399;28;20192;-65
2023/05/16 00:44:49;;;;;;;7.37;4.83;;;18.20;70.10;;;;;;5006761;28;20515;-69
2023/05/16 00:47:16;;;;;;;6.47;4.60;;;18.40;70.20;;;;;;5012040;28;20188;-67
2023/05/16 00:49:44;;;;;;;9.10;4.53;;;18.50;69.70;;;;;;5004366;28;20190;-69
2023/05/16 00:52:11;;;;;;;8.87;4.17;;;18.50;69.00;;;;;;5005975;28;20220;-70
2023/05/16 00:54:39;;;;;;;9.93;4.70;;;18.80;68.20;;;;;;5004880;28;20593;-67
2023/05/16 00:57:07;;;;;;;6.63;4.40;;;18.80;67.10;;;;;;5002867;28;20239;-68
2023/05/16 00:59:34;;;;;;;7.70;4.30;;;18.90;66.80;;;;;;5006518;28;20726;-66
2023/05/16 01:02:02;;;;;;;7.90;4.10;;;19.00;66.40;;;;;;5006853;28;20216;-67
2023/05/16 01:04:31;;;;;;;8.20;4.70;;;19.10;66.00;;;;;;5004896;28;20247;-68
2023/05/16 01:06:59;;;;;;;12.17;5.63;;;19.10;65.00;;;;;;5003447;28;20617;-70
2023/05/16 01:09:27;;;;;;;7.00;4.10;;;19.20;65.60;;;;;;5003566;28;20190;-68
2023/05/16 01:12:00;;;;;;;9.60;3.60;;;19.30;64.30;;;;;;5004854;28;20253;-70
2023/05/16 01:14:45;;;;;;;6.00;3.40;;;19.60;64.30;;;;;;5003398;28;20231;-68
2023/05/16 01:17:32;;;;;;;4.10;2.17;;;19.70;62.60;;;;;;5004033;28;20197;-68
2023/05/16 01:20:17;;;;;;;4.50;1.70;;;19.70;59.40;;;;;;5003673;28;20201;-64
2023/05/16 01:23:03;;;;;;;4.67;1.87;;;20.00;57.60;;;;;;5004773;28;20206;-67
2023/05/16 01:26:08;;;;;;;2.53;1.87;;;20.30;57.20;;;;;;5005658;28;20200;-69
2023/05/16 01:28:36;;;;;;;2.00;1.70;;;20.30;54.20;;;;;;5006493;28;20237;-65
2023/05/16 01:31:03;;;;;;;3.17;1.90;;;20.30;54.60;;;;;;5008609;28;20251;-66
2023/05/16 01:33:30;;;;;;;2.30;1.83;;;20.60;54.30;;;;;;5006178;28;20179;-68
2023/05/16 01:36:35;;;;;;;4.10;1.77;;;20.60;53.50;;;;;;5011804;28;20667;-68
2023/05/16 01:39:16;;;;;;;4.23;1.67;;;20.60;53.10;;;;;;5004898;28;20209;-67
2023/05/16 01:41:56;;;;;;;2.53;1.80;;;20.90;53.10;;;;;;5009053;28;20177;-68
2023/05/16 01:44:31;;;;;;;3.23;1.50;;;20.70;52.30;;;;;;5001732;28;20182;-67
2023/05/16 01:47:01;;;;;;;2.30;1.50;;;20.70;52.00;;;;;;5011920;28;20204;-67
2023/05/16 01:49:40;;;;;;;3.47;2.00;;;20.80;53.20;;;;;;5003202;28;20252;-70
2023/05/16 01:52:20;;;;;;;2.23;1.57;;;20.90;52.50;;;;;;5005531;28;20271;-66
2023/05/16 01:54:53;;;;;;;3.53;1.67;;;21.20;52.50;;;;;;5006245;28;20186;-68
2023/05/16 01:57:25;;;;;;;2.43;1.80;;;21.50;52.30;;;;;;5006982;28;20683;-66
2023/05/16 01:59:53;;;;;;;4.00;1.70;;;21.50;51.50;;;;;;5002661;28;20240;-68
2023/05/16 02:02:21;;;;;;;1.70;1.57;;;21.50;50.30;;;;;;5002007;28;20186;-68
2023/05/16 02:04:48;;;;;;;3.23;1.83;;;21.50;49.70;;;;;;5007773;28;20174;-68
2023/05/16 02:07:16;;;;;;;1.70;1.60;;;21.60;50.00;;;;;;5001746;28;20563;-68
2023/05/16 02:09:43;;;;;;;2.57;1.70;;;21.60;49.20;;;;;;5012340;28;20196;-68
2023/05/16 02:12:10;;;;;;;2.67;1.77;;;22.00;48.90;;;;;;5007237;28;20248;-67
2023/05/16 02:14:37;;;;;;;3.53;1.50;;;22.00;49.00;;;;;;5004999;28;20235;-66
2023/05/16 02:17:05;;;;;;;3.33;1.50;;;22.30;48.10;;;;;;5004933;28;20287;-68
2023/05/16 02:19:32;;;;;;;2.43;1.30;;;22.00;48.30;;;;;;5001460;28;20198;-67
2023/05/16 02:21:59;;;;;;;1.80;1.40;;;22.00;48.50;;;;;;5004138;28;20189;-67
2023/05/16 02:24:27;;;;;;;1.30;1.20;;;22.40;47.70;;;;;;5004287;28;20188;-66
2023/05/16 02:26:54;;;;;;;1.33;1.23;;;22.80;47.90;;;;;;5006822;28;20193;-66
2023/05/16 02:29:21;;;;;;;1.97;1.40;;;23.20;46.70;;;;;;5005304;28;20194;-67
2023/05/16 02:31:48;;;;;;;4.03;1.70;;;22.90;47.10;;;;;;5006393;28;20225;-66
2023/05/16 02:34:16;;;;;;;2.80;1.40;;;23.30;46.00;;;;;;5001123;28;20272;-67
2023/05/16 02:36:43;;;;;;;2.43;1.40;;;22.80;45.80;;;;;;5002483;28;20180;-66
2023/05/16 02:39:10;;;;;;;3.30;1.40;;;22.80;46.00;;;;;;5007296;28;20544;-67
2023/05/16 02:41:38;;;;;;;1.77;1.23;;;23.00;46.00;;;;;;5004146;28;20174;-67
2023/05/16 02:44:05;;;;;;;3.53;1.10;;;23.30;45.00;;;;;;5001917;28;20277;-68
2023/05/16 02:46:35;;;;;;;2.67;1.40;;;23.30;44.40;;;;;;5006295;28;20186;-70
2023/05/16 02:49:02;;;;;;;1.80;1.23;;;23.10;45.60;;;;;;5004338;28;20204;-69
2023/05/16 02:51:30;;;;;;;10.97;1.57;;;23.20;46.40;;;;;;5000528;28;20217;-68
2023/05/16 02:53:59;;;;;;;2.33;1.50;;;23.20;45.20;;;;;;5004132;28;20248;-69
2023/05/16 02:56:27;;;;;;;6.10;1.70;;;23.20;45.10;;;;;;5007228;28;20216;-68
2023/05/16 02:58:55;;;;;;;3.37;1.47;;;23.40;47.10;;;;;;5007409;28;20184;-66
2023/05/16 03:01:22;;;;;;;2.50;1.50;;;23.60;48.50;;;;;;5002372;28;20744;-68
2023/05/16 03:03:50;;;;;;;3.47;1.80;;;23.50;49.40;;;;;;5005428;28;20185;-67
2023/05/16 03:06:17;;;;;;;6.30;1.50;;;23.60;49.90;;;;;;5005802;28;20546;-69
2023/05/16 03:08:44;;;;;;;3.33;1.63;;;24.00;49.50;;;;;;4997385;28;20244;-65
2023/05/16 03:11:12;;;;;;;2.17;1.53;;;23.80;48.00;;;;;;5004545;28;20253;-67
2023/05/16 03:13:41;;;;;;;2.23;1.30;;;23.80;47.80;;;;;;5008043;28;20177;-68
2023/05/16 03:16:08;;;;;;;5.30;1.70;;;23.50;48.50;;;;;;5005939;28;20275;-67
2023/05/16 03:18:36;;;;;;;1.83;1.50;;;23.70;47.40;;;;;;5002999;28;20276;-66
2023/05/16 03:21:03;;;;;;;2.60;1.43;;;23.90;47.20;;;;;;5004603;28;20185;-66
2023/05/16 03:23:30;;;;;;;2.47;1.50;;;24.10;45.00;;;;;;5001523;28;20220;-66
2023/05/16 03:25:58;;;;;;;4.97;1.43;;;24.30;45.30;;;;;;5007350;28;20852;-68
2023/05/16 03:28:26;;;;;;;6.37;1.93;;;24.10;43.70;;;;;;5007843;28;20534;-70
2023/05/16 03:30:53;;;;;;;3.27;1.60;;;23.90;42.60;;;;;;5003973;28;20213;-67
2023/05/16 03:33:20;;;;;;;2.07;1.50;;;24.20;42.90;;;;;;5003274;28;20610;-65
2023/05/16 03:35:48;;;;;;;4.43;1.73;;;24.20;43.70;;;;;;5004739;28;20212;-65
2023/05/16 03:38:16;;;;;;;2.90;1.30;;;24.40;43.10;;;;;;5007576;28;20182;-69
2023/05/16 03:40:43;;;;;;;2.93;1.27;;;24.30;43.40;;;;;;5004607;28;20209;-70
2023/05/16 03:43:10;;;;;;;1.87;1.30;;;24.60;42.40;;;;;;5008499;28;20193;-67
2023/05/16 03:45:39;;;;;;;2.37;1.50;;;24.60;41.50;;;;;;5004569;28;20184;-68
2023/05/16 03:48:08;;;;;;;2.87;1.20;;;24.80;41.20;;;;;;5008425;28;20279;-68
2023/05/16 03:50:36;;;;;;;5.13;1.63;;;24.90;41.00;;;;;;5002624;28;20208;-66
2023/05/16 03:53:03;;;;;;;3.50;1.40;;;24.80;40.70;;;;;;5009733;28;20695;-68
2023/05/16 03:55:30;;;;;;;4.17;1.93;;;25.00;40.00;;;;;;5003449;28;20639;-68
2023/05/16 03:57:58;;;;;;;2.00;1.30;;;25.20;40.60;;;;;;5000998;28;20239;-66
2023/05/16 04:00:25;;;;;;;2.77;1.40;;;25.20;40.20;;;;;;5001243;28;20619;-67
2023/05/16 04:02:53;;;;;;;3.50;1.83;;;24.80;41.00;;;;;;5003075;28;20272;-66
2023/05/16 04:05:20;;;;;;;2.90;1.60;;;24.60;40.60;;;;;;4999106;28;20181;-66
2023/05/16 04:07:47;;;;;;;3.20;1.60;;;24.70;39.50;;;;;;5000242;28;20209;-67
2023/05/16 04:10:16;;;;;;;1.70;1.40;;;24.90;38.00;;;;;;5002528;28;20268;-65
2023/05/16 04:12:43;;;;;;;1.80;1.30;;;25.10;37.50;;;;;;5004232;28;20188;-66
2023/05/16 04:15:10;;;;;;;4.27;1.83;;;25.20;36.60;;;;;;5005801;28;20561;-65
2023/05/16 04:17:41;;;;;;;3.60;1.80;;;25.30;36.90;;;;;;5003009;28;20201;-68
2023/05/16 04:20:08;;;;;;;3.77;1.50;;;25.90;35.80;;;;;;5004260;28;20182;-66
2023/05/16 04:22:35;;;;;;;2.07;1.20;;;25.40;35.80;;;;;;5008284;28;20293;-68
2023/05/16 04:25:03;;;;;;;2.27;1.40;;;25.60;35.80;;;;;;5000996;28;20196;-69
2023/05/16 04:27:30;;;;;;;3.03;1.53;;;25.30;36.40;;;;;;5001747;28;20244;-66
2023/05/16 04:29:58;;;;;;;2.77;1.40;;;25.00;36.80;;;;;;5003769;28;20189;-69
2023/05/16 04:32:27;;;;;;;4.30;1.50;;;24.80;37.00;;;;;;5002717;28;20213;-65
2023/05/16 04:34:55;;;;;;;2.73;1.40;;;25.60;35.20;;;;;;5007948;28;20196;-69
2023/05/16 04:37:22;;;;;;;2.17;1.27;;;25.40;35.70;;;;;;5003908;28;20691;-68
2023/05/16 04:39:50;;;;;;;3.43;1.83;;;25.10;35.50;;;;;;5001346;28;20217;-71
2023/05/16 04:42:17;;;;;;;4.50;1.53;;;25.40;35.40;;;;;;5006839;28;20181;-69
2023/05/16 04:44:46;;;;;;;2.83;1.70;;;25.70;34.50;;;;;;5003867;28;20220;-71
2023/05/16 04:47:14;;;;;;;4.73;1.30;;;25.30;34.70;;;;;;5006827;28;20186;-71
2023/05/16 04:49:42;;;;;;;7.07;3.23;;;25.10;35.20;;;;;;5001564;28;20178;-70
2023/05/16 04:52:10;;;;;;;2.80;1.70;;;24.80;36.30;;;;;;5007993;28;20248;-69
2023/05/16 04:54:38;;;;;;;3.50;1.67;;;24.80;36.30;;;;;;5005718;28;20196;-70
2023/05/16 04:57:06;;;;;;;2.73;1.80;;;24.70;35.90;;;;;;5010873;28;20180;-69
2023/05/16 04:59:33;;;;;;;3.00;1.87;;;25.30;35.10;;;;;;5005110;28;20186;-71
2023/05/16 05:02:01;;;;;;;3.57;1.40;;;25.30;33.80;;;;;;5007913;28;20216;-71
2023/05/16 05:04:28;;;;;;;2.33;1.27;;;25.50;33.70;;;;;;5000849;28;20182;-67
2023/05/16 05:06:55;;;;;;;1.80;1.30;;;25.30;33.60;;;;;;5005220;28;20193;-68
2023/05/16 05:09:23;;;;;;;3.87;1.20;;;25.00;33.30;;;;;;5005185;28;20186;-70
2023/05/16 05:11:51;;;;;;;1.30;1.10;;;25.00;34.10;;;;;;5008553;28;20213;-68
2023/05/16 05:14:18;;;;;;;1.67;1.20;;;25.00;34.10;;;;;;5006235;28;20797;-69
2023/05/16 05:16:45;;;;;;;2.13;1.00;;;25.10;34.30;;;;;;5008643;28;20229;-66
2023/05/16 05:19:13;;;;;;;1.97;1.00;;;24.70;33.90;;;;;;5006909;28;20182;-66
2023/05/16 05:21:40;;;;;;;8.63;1.40;;;24.80;33.30;;;;;;5006673;28;20189;-69
2023/05/16 05:24:07;;;;;;;3.20;1.17;;;24.80;33.00;;;;;;5008013;28;20184;-69
2023/05/16 05:26:35;;;;;;;2.13;1.20;;;24.50;32.70;;;;;;5003777;28;21286;-70
2023/05/16 05:29:02;;;;;;;1.73;1.20;;;24.60;33.70;;;;;;5006411;28;20742;-66
2023/05/16 05:31:29;;;;;;;3.27;1.23;;;24.70;33.80;;;;;;5002789;28;20213;-68
2023/05/16 05:33:57;;;;;;;1.73;1.20;;;25.00;34.10;;;;;;5005147;28;20284;-67
2023/05/16 05:36:24;;;;;;;1.37;1.00;;;25.30;34.30;;;;;;5003033;28;20626;-68
2023/05/16 05:38:51;;;;;;;2.87;1.20;;;25.30;34.80;;;;;;5003372;28;20272;-68
2023/05/16 05:41:20;;;;;;;1.70;1.17;;;25.30;35.10;;;;;;5005157;28;20185;-68
2023/05/16 05:43:48;;;;;;;4.53;1.63;;;25.30;35.50;;;;;;5005618;28;20185;-69
2023/05/16 05:46:16;;;;;;;1.27;1.17;;;25.10;35.80;;;;;;5010053;28;20184;-68
2023/05/16 05:48:43;;;;;;;1.30;1.20;;;25.30;35.90;;;;;;5003818;28;20189;-69
2023/05/16 05:51:13;;;;;;;4.93;1.43;;;25.50;35.80;;;;;;5005906;28;20224;-67
2023/05/16 05:53:41;;;;;;;2.47;1.60;;;25.40;36.40;;;;;;5005136;28;20668;-67
2023/05/16 05:56:08;;;;;;;4.03;2.00;;;25.40;36.60;;;;;;5002424;28;20189;-69
2023/05/16 05:58:36;;;;;;;2.93;1.47;;;25.80;36.20;;;;;;5006565;28;20189;-69
2023/05/16 06:01:03;;;;;;;2.20;1.50;;;24.90;36.70;;;;;;5006478;28;20197;-68
2023/05/16 06:03:30;;;;;;;4.43;1.60;;;24.80;36.80;;;;;;5003951;28;20181;-68
2023/05/16 06:05:58;;;;;;;2.87;1.17;;;24.10;39.20;;;;;;5007006;28;20201;-71
2023/05/16 06:08:25;;;;;;;1.63;1.33;;;23.20;42.50;;;;;;5005216;28;20190;-67
2023/05/16 06:10:53;;;;;;;1.90;1.30;;;22.50;44.20;;;;;;5008419;28;20196;-69
2023/05/16 06:13:20;;;;;;;2.23;1.60;;;22.20;44.80;;;;;;5007165;28;20191;-71
2023/05/16 06:15:52;;;;;;;3.87;1.70;;;21.70;46.50;;;;;;5004135;28;20228;-66
2023/05/16 06:18:20;;;;;;;1.93;1.67;;;21.30;47.80;;;;;;5003645;28;20690;-67
2023/05/16 06:20:48;;;;;;;2.00;1.40;;;21.20;48.60;;;;;;5005974;28;20559;-68
2023/05/16 06:23:16;;;;;;;2.07;1.53;;;20.90;49.10;;;;;;5004418;28;20193;-66
2023/05/16 06:25:43;;;;;;;5.90;2.13;;;20.80;49.80;;;;;;5002927;28;20196;-68
2023/05/16 06:28:11;;;;;;;4.30;1.80;;;20.80;50.10;;;;;;5002045;28;20185;-69
2023/05/16 06:30:38;;;;;;;3.20;2.40;;;20.50;50.80;;;;;;5005767;28;20200;-65
2023/05/16 06:33:05;;;;;;;2.70;1.90;;;20.50;51.40;;;;;;5004241;28;20201;-67
2023/05/16 06:35:33;;;;;;;3.40;1.87;;;20.10;51.10;;;;;;5005166;28;20194;-70
2023/05/16 06:38:00;;;;;;;3.73;1.60;;;20.00;51.20;;;;;;5004702;28;20190;-69
2023/05/16 06:40:27;;;;;;;4.97;1.47;;;19.80;51.70;;;;;;5003450;28;20267;-66
2023/05/16 06:42:57;;;;;;;3.27;1.50;;;19.80;51.80;;;;;;5000129;28;20639;-66
2023/05/16 06:45:26;;;;;;;5.93;2.17;;;19.70;52.00;;;;;;5007581;28;20200;-66
2023/05/16 06:47:53;;;;;;;4.17;1.80;;;19.60;52.60;;;;;;5004786;28;20211;-68
2023/05/16 06:50:20;;;;;;;1.83;1.30;;;19.50;52.30;;;;;;5006014;28;20185;-69
2023/05/16 06:52:48;;;;;;;3.33;1.70;;;19.30;53.00;;;;;;5007454;28;20197;-69
2023/05/16 06:55:15;;;;;;;4.80;1.90;;;19.30;53.40;;;;;;5007251;28;20181;-67
2023/05/16 06:57:43;;;;;;;5.00;2.00;;;19.20;53.60;;;;;;5003386;28;22138;-65
2023/05/16 07:00:10;;;;;;;4.73;2.10;;;19.20;54.10;;;;;;5007222;28;20220;-66
2023/05/16 07:02:38;;;;;;;4.83;2.10;;;19.00;54.20;;;;;;5006332;28;20189;-64
2023/05/16 07:05:06;;;;;;;4.90;2.27;;;19.00;54.00;;;;;;5007595;28;20189;-65
2023/05/16 07:07:33;;;;;;;5.17;2.37;;;18.80;54.10;;;;;;5004442;28;20179;-66
2023/05/16 07:10:01;;;;;;;3.47;2.13;;;18.80;54.10;;;;;;4999412;28;20253;-67
2023/05/16 07:12:29;;;;;;;6.10;2.30;;;18.80;54.30;;;;;;5006209;28;20260;-69
2023/05/16 07:14:56;;;;;;;3.17;2.00;;;18.80;54.50;;;;;;5006240;28;20193;-65
2023/05/16 07:17:23;;;;;;;3.20;2.10;;;18.70;54.40;;;;;;5001810;28;20284;-65
2023/05/16 07:19:50;;;;;;;4.13;2.20;;;18.60;54.10;;;;;;4999317;28;20186;-72
2023/05/16 07:22:18;;;;;;;3.77;2.33;;;18.60;54.10;;;;;;5004027;28;20192;-70
2023/05/16 07:24:45;;;;;;;6.70;2.23;;;18.60;54.50;;;;;;5001929;28;20260;-70
2023/05/16 07:27:13;;;;;;;4.00;2.23;;;18.50;54.60;;;;;;5007796;28;20185;-70
2023/05/16 07:29:40;;;;;;;8.73;2.63;;;18.50;54.70;;;;;;5003049;28;20672;-65
2023/05/16 07:32:08;;;;;;;8.53;2.40;;;18.40;55.00;;;;;;5003123;28;20683;-66
2023/05/16 07:34:35;;;;;;;6.23;2.80;;;18.30;55.10;;;;;;4999502;28;20197;-65
2023/05/16 07:37:03;;;;;;;6.43;2.40;;;18.30;55.50;;;;;;5004965;28;20225;-66
2023/05/16 07:39:31;;;;;;;5.87;2.50;;;18.30;56.20;;;;;;5005164;28;20271;-66
2023/05/16 07:41:58;;;;;;;2.90;2.30;;;18.20;56.80;;;;;;5000977;28;20257;-65
2023/05/16 07:44:25;;;;;;;7.27;2.70;;;18.20;57.20;;;;;;5002871;28;20182;-66
2023/05/16 07:46:53;;;;;;;8.60;2.70;;;18.10;57.60;;;;;;5007903;28;20196;-65
2023/05/16 07:49:20;;;;;;;10.07;3.03;;;18.00;57.80;;;;;;5006196;28;20189;-66
2023/05/16 07:51:47;;;;;;;5.60;2.67;;;18.00;57.60;;;;;;5003571;28;20213;-66
2023/05/16 07:54:15;;;;;;;4.40;2.70;;;18.00;58.00;;;;;;5002480;28;20212;-66
2023/05/16 07:56:42;;;;;;;7.13;2.87;;;17.90;57.60;;;;;;5001263;28;20193;-68
2023/05/16 07:59:10;;;;;;;3.73;2.47;;;17.90;57.40;;;;;;5005227;28;20243;-68
2023/05/16 08:01:37;;;;;;;7.60;2.83;;;17.80;57.40;;;;;;5005795;28;20184;-67
2023/05/16 08:04:04;;;;;;;6.37;3.10;;;17.80;57.30;;;;;;5001658;28;20181;-69
2023/05/16 08:06:33;;;;;;;4.43;2.73;;;17.80;57.80;;;;;;4999356;28;20204;-67
2023/05/16 08:09:00;;;;;;;7.83;2.80;;;17.80;57.90;;;;;;4999811;28;20287;-68
2023/05/16 08:11:28;;;;;;;5.43;3.53;;;17.70;58.00;;;;;;5001914;28;20753;-66
2023/05/16 08:13:55;;;;;;;6.27;4.03;;;17.70;57.70;;;;;;5000650;28;20197;-67
2023/05/16 08:16:23;;;;;;;5.70;3.90;;;17.60;58.00;;;;;;4999928;28;20323;-68
2023/05/16 08:18:50;;;;;;;6.63;3.87;;;17.60;58.40;;;;;;4998549;28;20224;-67
2023/05/16 08:21:17;;;;;;;6.63;4.03;;;17.50;58.50;;;;;;5002389;28;20235;-64
2023/05/16 08:23:45;;;;;;;5.60;3.00;;;17.50;59.20;;;;;;4997872;28;20651;-68
2023/05/16 08:26:12;;;;;;;6.10;3.30;;;17.40;59.10;;;;;;5001854;28;20651;-69
2023/05/16 08:28:39;;;;;;;7.27;3.10;;;17.30;59.50;;;;;;5006062;28;20193;-67
2023/05/16 08:31:06;;;;;;;8.00;3.20;;;17.30;59.60;;;;;;5006564;28;20311;-66
2023/05/16 08:33:34;;;;;;;9.37;3.43;;;17.30;60.10;;;;;;5008232;28;20626;-65
2023/05/16 08:36:01;;;;;;;4.83;3.07;;;17.30;60.50;;;;;;5006122;28;20204;-66
2023/05/16 08:38:29;;;;;;;6.80;3.60;;;17.20;60.40;;;;;;5010499;28;20307;-67
2023/05/16 08:40:56;;;;;;;7.23;3.40;;;17.20;60.80;;;;;;5007843;28;20191;-66
2023/05/16 08:43:24;;;;;;;7.60;3.53;;;17.10;60.90;;;;;;5008701;28;20532;-66
2023/05/16 08:45:53;;;;;;;5.07;2.83;;;17.10;61.40;;;;;;5009616;28;20181;-67
2023/05/16 08:48:23;;;;;;;7.47;3.57;;;17.00;61.90;;;;;;5004123;28;20193;-66
2023/05/16 08:50:52;;;;;;;15.70;3.70;;;16.90;62.00;;;;;;5007598;28;20701;-65
2023/05/16 08:53:24;;;;;;;9.17;3.80;;;16.90;62.30;;;;;;5005890;28;20193;-68
2023/05/16 08:55:52;;;;;;;9.63;3.60;;;16.80;62.80;;;;;;5007203;28;20178;-68
2023/05/16 08:58:20;;;;;;;6.90;3.60;;;16.70;63.20;;;;;;5006825;28;20650;-65
2023/05/16 09:00:48;;;;;;;8.30;3.83;;;16.70;63.40;;;;;;5007391;28;20192;-67
2023/05/16 09:03:19;;;;;;;9.87;3.77;;;16.60;63.80;;;;;;5006683;28;20195;-69
2023/05/16 09:05:47;;;;;;;8.70;3.57;;;16.70;64.00;;;;;;5003014;28;20200;-69
2023/05/16 09:08:14;;;;;;;10.83;4.17;;;16.60;64.00;;;;;;5004205;28;20292;-67
2023/05/16 09:10:41;;;;;;;9.60;3.63;;;16.60;64.50;;;;;;5003420;28;20259;-66
2023/05/16 09:13:09;;;;;;;7.00;3.93;;;16.60;64.60;;;;;;5000668;28;20185;-66
2023/05/16 09:15:36;;;;;;;7.03;4.07;;;16.60;64.50;;;;;;5003186;28;20256;-67
2023/05/16 09:18:04;;;;;;;6.47;3.83;;;16.60;64.50;;;;;;5003407;28;20188;-66
2023/05/16 09:20:31;;;;;;;10.00;4.00;;;16.60;64.50;;;;;;5006123;28;20914;-66
2023/05/16 09:23:00;;;;;;;8.67;4.27;;;16.60;64.80;;;;;;5006677;28;20182;-66
2023/05/16 09:25:30;;;;;;;11.20;4.80;;;16.70;64.20;;;;;;5008149;28;20193;-67
2023/05/16 09:27:59;;;;;;;8.10;4.20;;;16.60;64.20;;;;;;5009757;28;20481;-66
2023/05/16 09:30:32;;;;;;;12.13;4.10;;;16.60;64.10;;;;;;5007203;28;20194;-66
2023/05/16 09:33:00;;;;;;;13.43;4.07;;;16.60;64.10;;;;;;5004411;28;20197;-65
2023/05/16 09:35:27;;;;;;;10.47;4.23;;;16.60;64.10;;;;;;5009642;28;20257;-66
2023/05/16 09:37:55;;;;;;;6.33;3.83;;;16.70;64.00;;;;;;5005634;28;20273;-65
2023/05/16 09:40:23;;;;;;;7.60;3.57;;;16.70;63.90;;;;;;5007489;28;20189;-67
2023/05/16 09:43:07;;;;;;;7.30;3.97;;;16.60;64.50;;;;;;5000829;28;20260;-65
2023/05/16 09:45:36;;;;;;;10.23;3.97;;;16.70;64.00;;;;;;5007826;28;20187;-65
2023/05/16 09:48:08;;;;;;;10.30;3.33;;;16.70;63.50;;;;;;5006435;28;20313;-66
2023/05/16 09:50:37;;;;;;;10.43;3.60;;;16.60;63.90;;;;;;5005305;28;20764;-64
2023/05/16 09:53:05;;;;;;;7.83;3.77;;;16.60;63.90;;;;;;5006190;28;20242;-69
2023/05/16 09:55:33;;;;;;;7.77;3.37;;;16.70;63.90;;;;;;5006462;28;20178;-69
2023/05/16 09:58:00;;;;;;;7.83;3.70;;;16.60;63.50;;;;;;5000485;28;20247;-69
2023/05/16 10:00:32;;;;;;;8.97;3.70;;;16.50;64.10;;;;;;5005401;28;20195;-69
2023/05/16 10:03:02;;;;;;;6.70;3.23;;;16.50;64.20;;;;;;5003441;28;20189;-68
2023/05/16 10:05:30;;;;;;;7.90;3.17;;;16.40;64.60;;;;;;5008668;28;20933;-66
2023/05/16 10:07:58;;;;;;;7.77;3.60;;;16.30;64.50;;;;;;5008542;28;20188;-66
2023/05/16 10:10:26;;;;;;;7.80;4.73;;;16.30;65.20;;;;;;5006639;28;20189;-66
2023/05/16 10:12:55;;;;;;;8.57;4.57;;;16.20;65.20;;;;;;5003103;28;20602;-67
2023/05/16 10:15:23;;;;;;;14.50;5.30;;;16.20;65.30;;;;;;5003104;28;20706;-65
2023/05/16 10:17:52;;;;;;;8.37;4.90;;;16.10;66.00;;;;;;5005103;28;20195;-67
2023/05/16 10:20:21;;;;;;;9.00;5.10;;;16.10;66.00;;;;;;5008262;28;20180;-66
2023/05/16 10:22:52;;;;;;;16.57;5.67;;;16.00;66.50;;;;;;5001235;28;20192;-67
2023/05/16 10:25:30;;;;;;;12.13;5.27;;;16.10;66.70;;;;;;5000825;28;20294;-65
2023/05/16 10:27:58;;;;;;;9.23;5.17;;;16.10;66.90;;;;;;5004668;28;20820;-65
2023/05/16 10:30:26;;;;;;;14.63;4.63;;;16.10;66.80;;;;;;5002746;28;20201;-66
2023/05/16 10:32:55;;;;;;;11.23;4.97;;;16.10;66.60;;;;;;5004204;28;20195;-65
2023/05/16 10:35:23;;;;;;;9.97;5.00;;;16.10;66.30;;;;;;5000722;28;20274;-65
2023/05/16 10:37:51;;;;;;;8.87;4.30;;;16.20;66.30;;;;;;5001849;28;20195;-64
2023/05/16 10:40:21;;;;;;;8.00;3.97;;;16.10;66.30;;;;;;5008479;28;20278;-65
2023/05/16 10:42:59;;;;;;;6.80;3.90;;;16.20;65.70;;;;;;5008388;28;20197;-65
2023/05/16 10:45:27;;;;;;;6.60;3.43;;;16.20;65.60;;;;;;5003160;28;20816;-67
2023/05/16 10:47:59;;;;;;;7.10;3.50;;;16.20;65.20;;;;;;5001926;28;20659;-65
2023/05/16 10:50:44;;;;;;;5.90;3.60;;;16.20;65.40;;;;;;5003665;28;20186;-66
2023/05/16 10:53:32;;;;;;;5.50;2.90;;;16.20;65.70;;;;;;5001872;28;20186;-70
2023/05/16 10:56:02;;;;;;;12.07;4.30;;;16.20;65.60;;;;;;5004055;28;20184;-64
2023/05/16 10:58:37;;;;;;;8.57;3.47;;;16.30;65.60;;;;;;5005944;28;20222;-64
2023/05/16 11:01:24;;;;;;;5.10;3.30;;;16.30;65.40;;;;;;5007005;28;20416;-64
2023/05/16 11:03:58;;;;;;;11.40;3.43;;;16.30;65.30;;;;;;5003730;28;20275;-64
2023/05/16 11:06:33;;;;;;;10.77;3.80;;;16.30;65.60;;;;;;5000603;28;20189;-64
2023/05/16 11:09:16;;;;;;;7.33;3.50;;;16.30;66.00;;;;;;5006929;28;20206;-65
2023/05/16 11:11:53;;;;;;;8.40;3.83;;;16.30;66.20;;;;;;5002163;28;20215;-64
2023/05/16 11:14:32;;;;;;;8.90;4.37;;;16.30;66.40;;;;;;5004061;28;20257;-67
2023/05/16 11:17:01;;;;;;;7.57;4.27;;;16.20;66.30;;;;;;5004396;28;20224;-64
2023/05/16 11:19:52;;;;;;;5.20;3.60;;;16.20;66.30;;;;;;5002208;28;20203;-64
2023/05/16 11:22:26;;;;;;;13.03;5.10;;;16.10;66.30;;;;;;5002432;28;20172;-64
2023/05/16 11:25:09;;;;;;;9.70;4.57;;;16.00;66.40;;;;;;4999893;28;20215;-65
2023/05/16 11:27:44;;;;;;;9.23;4.77;;;15.90;67.10;;;;;;5003886;28;20218;-64
2023/05/16 11:30:20;;;;;;;5.53;3.97;;;15.80;67.40;;;;;;5005820;28;20657;-66
2023/05/16 11:32:49;;;;;;;12.27;4.10;;;15.80;68.00;;;;;;5000153;28;20189;-68
2023/05/16 11:35:17;;;;;;;8.67;4.37;;;15.70;68.40;;;;;;5002824;28;20176;-64
2023/05/16 11:37:46;;;;;;;6.90;4.03;;;15.70;69.00;;;;;;5000823;28;20189;-64
2023/05/16 11:40:15;;;;;;;11.00;4.27;;;15.50;69.00;;;;;;5003684;28;20192;-63
2023/05/16 11:42:45;;;;;;;6.07;3.97;;;15.40;69.30;;;;;;5001652;28;20178;-64
2023/05/16 11:45:17;;;;;;;9.53;4.80;;;15.30;70.10;;;;;;5005083;28;20181;-68
2023/05/16 11:47:47;;;;;;;7.33;4.17;;;15.20;70.50;;;;;;4999982;28;20666;-64
2023/05/16 11:50:19;;;;;;;10.30;4.50;;;15.20;71.60;;;;;;4999925;28;20191;-64
2023/05/16 11:52:56;;;;;;;8.87;4.50;;;15.20;71.40;;;;;;5003602;28;20191;-64
2023/05/16 11:55:26;;;;;;;8.47;5.17;;;15.00;71.80;;;;;;5003247;28;20205;-66
2023/05/16 11:57:54;;;;;;;9.63;5.07;;;14.90;72.60;;;;;;5002218;28;20181;-64
2023/05/16 12:00:24;;;;;;;11.53;5.13;;;14.80;73.00;;;;;;4996308;28;20648;-64
2023/05/16 12:02:53;;;;;;;10.30;5.33;;;14.80;73.50;;;;;;5004073;28;20247;-66
2023/05/16 12:05:26;;;;;;;14.47;5.73;;;14.90;74.10;;;;;;5004833;28;20591;-64
2023/05/16 12:07:54;;;;;;;11.50;5.37;;;14.80;73.50;;;;;;5003992;28;20554;-64
2023/05/16 12:10:21;;;;;;;10.20;5.43;;;14.80;74.20;;;;;;5004502;28;20190;-64
2023/05/16 12:12:51;;;;;;;8.93;5.60;;;14.80;74.50;;;;;;5004253;28;20601;-65
2023/05/16 12:15:20;;;;;;;8.87;4.87;;;14.80;74.40;;;;;;5003988;28;20232;-64
2023/05/16 12:17:48;;;;;;;12.83;4.93;;;14.80;74.50;;;;;;5003537;28;20277;-65
2023/05/16 12:20:16;;;;;;;10.77;5.10;;;14.80;75.00;;;;;;5002355;28;20718;-65
2023/05/16 12:22:44;;;;;;;8.63;4.90;;;14.90;75.20;;;;;;5002449;28;20231;-67
2023/05/16 12:25:28;;;;;;;10.50;5.43;;;15.00;74.90;;;;;;5002087;28;20189;-65
2023/05/16 12:27:58;;;;;;;10.33;5.60;;;15.00;74.70;;;;;;5001612;28;20206;-65
2023/05/16 12:30:27;;;;;;;16.23;5.50;;;15.10;74.40;;;;;;5004412;28;20221;-64
2023/05/16 12:32:58;;;;;;;11.13;5.60;;;15.00;73.20;;;;;;5001303;28;20573;-67
2023/05/16 12:35:31;;;;;;;13.97;5.67;;;15.00;73.70;;;;;;4998775;28;20678;-66
2023/05/16 12:37:59;;;;;;;11.03;5.93;;;14.90;75.30;;;;;;5004309;28;20240;-66
2023/05/16 12:40:30;;;;;;;13.80;6.07;;;14.90;76.20;;;;;;5004004;28;20185;-66
2023/05/16 12:42:57;;;;;;;9.73;5.10;;;14.90;77.00;;;;;;5000605;28;20193;-66
2023/05/16 12:45:27;;;;;;;9.30;4.63;;;14.80;78.30;;;;;;5002342;28;20285;-66
2023/05/16 12:47:54;;;;;;;8.43;4.13;;;14.70;81.40;;;;;;5002625;28;20229;-64
2023/05/16 12:50:22;;;;;;;13.67;3.90;;;14.80;82.40;;;;;;5003485;28;20186;-65
2023/05/16 12:52:49;;;;;;;10.20;4.37;;;14.80;83.90;;;;;;4998911;28;20193;-65
2023/05/16 12:55:17;;;;;;;14.77;4.63;;;15.00;86.00;;;;;;5004744;28;20173;-68